Keiho Maru — JJ4010 — position and weather

sailwx.info

Track history (hours):
 
Tides and Currents Weather Stations Pressure Air Temp Water Temp Dewpoint Dewpoint Depression Visibility Wind Speed Wind Dir Waves Ship Positions

Keiho Maru

Last reported at 2017-Jul-20 17:17 UTC. Time now 2017-Jul-21 22:50 UTC.
Position N 34°41' E 135°12'.

Length 38 m; draft 3.6 m.

Type: Tug. MMSI: 431401501.

Date/timePositionNaut miles runAvg speedWind from/ knotsBaromVisibWave heightAir tempDewpointWater temp
2017-Jul-20 17:17N 34°41' E 135°12'0 0.4
2017-Jul-20 17:00N 34°41' E 135°12'5 9.1
2017-Jul-20 16:30N 34°41' E 135°18'0 0.4
2017-Jul-20 16:00N 34°41' E 135°17'0 0.0
2017-Jul-20 15:30N 34°41' E 135°17'0 0.0
2017-Jul-20 15:00N 34°41' E 135°17'0 0.0
2017-Jul-20 14:00N 34°41' E 135°17'0 0.0
2017-Jul-20 13:30N 34°41' E 135°17'2 4.8
2017-Jul-20 13:00N 34°42' E 135°15'0 0.6
2017-Jul-20 12:30N 34°42' E 135°15'2 3.7
2017-Jul-20 12:00N 34°40' E 135°13'0 0.0
2017-Jul-20 11:30N 34°40' E 135°13'0 0.0
2017-Jul-20 11:00N 34°40' E 135°13'0 0.0
2017-Jul-20 10:30N 34°40' E 135°13'0 0.0
2017-Jul-20 10:00N 34°40' E 135°13'0 0.0
2017-Jul-20 09:30N 34°40' E 135°13'0 0.9
2017-Jul-20 09:00N 34°41' E 135°13'0 0.4
2017-Jul-20 08:30N 34°41' E 135°14'0 0.0
2017-Jul-20 08:00N 34°41' E 135°14'0 0.0
2017-Jul-20 07:30N 34°41' E 135°14'0 0.0
2017-Jul-20 07:00N 34°41' E 135°14'1 2.7
2017-Jul-20 06:30N 34°41' E 135°15'3 5.1
2017-Jul-20 06:00N 34°41' E 135°12'0 0.0
2017-Jul-20 05:30N 34°41' E 135°12'0 0.0
2017-Jul-20 05:00N 34°41' E 135°12'0 0.0
2017-Jul-20 04:30N 34°41' E 135°12'0 0.0
2017-Jul-20 04:00N 34°41' E 135°12'0 0.0
2017-Jul-20 03:30N 34°41' E 135°12'0 0.9
2017-Jul-20 03:00N 34°40' E 135°12'1 1.4
2017-Jul-20 02:30N 34°40' E 135°11'1 2.3
2017-Jul-20 02:00N 34°41' E 135°12'0 0.0
2017-Jul-20 01:30N 34°41' E 135°12'0 0.0
2017-Jul-20 01:00N 34°41' E 135°12'0 0.0
2017-Jul-20 00:30N 34°41' E 135°12'1 2.8
2017-Jul-20 00:00N 34°41' E 135°14'3 5.7
2017-Jul-19 23:30N 34°41' E 135°17'0 0.7
2017-Jul-19 23:00N 34°41' E 135°18'1 1.2
2017-Jul-19 22:30N 34°40' E 135°18'0 0.9
2017-Jul-19 22:00N 34°40' E 135°18'4 7.2
2017-Jul-19 21:30N 34°41' E 135°13'1 2.3
2017-Jul-19 21:00N 34°41' E 135°12'  
2017-Jul-17 09:26N 34°41' E 135°12'3 5.9
2017-Jul-17 09:00N 34°39' E 135°10'612.3
2017-Jul-17 08:30N 34°37' E 135°03'12 1.3
2017-Jul-16 22:49N 34°41' E 134°48'1 0.0
2017-Jul-15 22:33N 34°40' E 134°49'0 0.9
2017-Jul-15 22:30N 34°40' E 134°49'4 6.4
2017-Jul-15 21:49N 34°39' E 134°54'310.1
2017-Jul-15 21:30N 34°38' E 134°58'4 9.0
2017-Jul-15 21:00N 34°37' E 135°03'510.9
2017-Jul-15 20:30N 34°38' E 135°10'3 6.1
2017-Jul-15 20:00N 34°41' E 135°12'0 0.0
2017-Jul-15 06:55N 34°41' E 135°12'0 0.0
2017-Jul-15 06:30N 34°41' E 135°12'0 0.0
2017-Jul-15 06:00N 34°41' E 135°12'0 0.0
2017-Jul-15 05:30N 34°41' E 135°12'0 0.0
2017-Jul-15 05:00N 34°41' E 135°12'3 6.0
2017-Jul-15 04:30N 34°39' E 135°09'1 1.1
2017-Jul-15 04:00N 34°38' E 135°10'0 0.9
2017-Jul-15 03:29N 34°38' E 135°10'3 5.3
2017-Jul-15 03:00N 34°41' E 135°12'0 0.0
2017-Jul-15 02:30N 34°41' E 135°12'0 0.0
2017-Jul-15 02:00N 34°41' E 135°12'0 0.0
2017-Jul-15 01:30N 34°41' E 135°12'0 0.0
2017-Jul-15 01:00N 34°41' E 135°12'0 0.0
2017-Jul-15 00:30N 34°41' E 135°12'0 0.0
2017-Jul-15 00:00N 34°41' E 135°12'0 0.0
2017-Jul-14 23:30N 34°41' E 135°12'0 0.0
2017-Jul-14 23:00N 34°41' E 135°12'0 0.0
2017-Jul-14 10:42N 34°41' E 135°12'0 0.0
2017-Jul-14 10:31N 34°41' E 135°12'3 6.2
2017-Jul-14 10:00N 34°42' E 135°16'2 3.1
2017-Jul-14 09:30N 34°40' E 135°15'0 0.8
2017-Jul-14 09:00N 34°40' E 135°15'0 0.0
2017-Jul-14 08:30N 34°40' E 135°15'0 0.3
2017-Jul-14 08:00N 34°40' E 135°15'2 4.8
2017-Jul-14 07:30N 34°41' E 135°17'0 0.7
2017-Jul-14 07:00N 34°41' E 135°17'0 0.1
2017-Jul-14 06:30N 34°41' E 135°17'4 7.0
2017-Jul-14 06:00N 34°41' E 135°13'0 0.1
2017-Jul-14 05:30N 34°41' E 135°13'0 0.0
2017-Jul-14 05:00N 34°41' E 135°13'2 4.1
2017-Jul-14 04:30N 34°42' E 135°15'2 3.4
2017-Jul-14 04:00N 34°40' E 135°15'2 4.1
2017-Jul-14 03:30N 34°41' E 135°12'0 0.2
2017-Jul-14 03:00N 34°41' E 135°12'0 0.0
2017-Jul-14 02:30N 34°41' E 135°12'0 0.0
2017-Jul-14 02:01N 34°41' E 135°12'0 0.0
2017-Jul-14 01:31N 34°41' E 135°12'0 0.0
2017-Jul-14 01:01N 34°41' E 135°12'0 0.3
2017-Jul-14 00:30N 34°41' E 135°12'0 0.6
2017-Jul-14 00:01N 34°41' E 135°13'2 3.5
2017-Jul-13 23:30N 34°41' E 135°15'1 2.1
2017-Jul-13 23:00N 34°41' E 135°16'0 0.5
2017-Jul-13 22:30N 34°41' E 135°16'1 2.7
2017-Jul-13 22:01N 34°39' E 135°16'1 2.0
2017-Jul-13 21:30N 34°40' E 135°15'2 4.6
2017-Jul-13 21:01N 34°41' E 135°12'0 0.0
2017-Jul-13 06:02N 34°41' E 135°12'0 0.0
2017-Jul-13 06:00N 34°41' E 135°12'0 0.0
2017-Jul-13 05:30N 34°41' E 135°12'0 0.0
2017-Jul-13 05:00N 34°41' E 135°12'0 0.0
2017-Jul-13 04:30N 34°41' E 135°12'0 0.0
2017-Jul-13 04:01N 34°41' E 135°12'0 0.0
2017-Jul-13 03:31N 34°41' E 135°12'4 7.7
2017-Jul-13 03:00N 34°38' E 135°16'713.4
2017-Jul-13 02:30N 34°34' E 135°22'2 3.4
2017-Jul-13 01:57N 34°33' E 135°24'0 0.1
2017-Jul-13 01:30N 34°33' E 135°24'0 1.0
2017-Jul-13 01:00N 34°33' E 135°24'3 4.6
2017-Jul-13 00:24N 34°33' E 135°20'3 4.8
2017-Jul-12 23:47N 34°31' E 135°23'1 3.4
2017-Jul-12 23:30N 34°31' E 135°24'0 0.0
2017-Jul-12 23:00N 34°31' E 135°24'0 0.0
2017-Jul-12 22:30N 34°31' E 135°24'0 0.0
2017-Jul-12 22:00N 34°31' E 135°24'0 0.0
2017-Jul-12 21:30N 34°31' E 135°24'1 1.6
2017-Jul-12 20:52N 34°32' E 135°24'3 8.3
2017-Jul-12 20:30N 34°34' E 135°21'612.1
2017-Jul-12 20:00N 34°37' E 135°16'4 8.5
2017-Jul-12 19:30N 34°41' E 135°12'0 0.0
2017-Jul-12 19:00N 34°41' E 135°12'0 0.0
2017-Jul-12 18:30N 34°41' E 135°12'0 0.0
2017-Jul-12 05:46N 34°41' E 135°12'0 1.7
2017-Jul-12 05:30N 34°40' E 135°12'5 9.1
2017-Jul-12 05:00N 34°38' E 135°17'5 9.4
2017-Jul-12 04:26N 34°35' E 135°22'3 2.6
2017-Jul-12 03:28N 34°34' E 135°25'1 1.3
2017-Jul-12 02:58N 34°33' E 135°24'3 6.6
2017-Jul-12 02:30N 34°33' E 135°21'1 2.5
2017-Jul-12 01:57N 34°34' E 135°19'4 9.7
2017-Jul-12 01:30N 34°38' E 135°16'2 3.1
2017-Jul-12 01:00N 34°39' E 135°15'0 0.0
2017-Jul-12 00:30N 34°39' E 135°15'0 0.0
2017-Jul-12 00:00N 34°39' E 135°15'0 0.0
2017-Jul-11 23:30N 34°39' E 135°15'0 0.0
2017-Jul-11 23:00N 34°39' E 135°15'1 1.9
2017-Jul-11 22:30N 34°40' E 135°14'1 2.7
2017-Jul-11 22:00N 34°39' E 135°15'2 3.8
2017-Jul-11 21:30N 34°39' E 135°13'2 3.6
2017-Jul-11 21:00N 34°41' E 135°12'0 0.0
2017-Jul-11 09:55N 34°41' E 135°12'2 5.7
2017-Jul-11 09:30N 34°41' E 135°15'612.5
2017-Jul-11 09:00N 34°39' E 135°22'1 2.8
2017-Jul-11 08:30N 34°39' E 135°24'1 1.9
2017-Jul-11 07:59N 34°39' E 135°25'0 0.2
2017-Jul-11 07:30N 34°40' E 135°24'0 0.0
2017-Jul-11 07:00N 34°40' E 135°24'0 0.0
2017-Jul-11 06:30N 34°40' E 135°24'1 1.9
2017-Jul-11 06:00N 34°39' E 135°24'0 0.7
2017-Jul-11 05:30N 34°39' E 135°24'0 0.2
2017-Jul-11 05:00N 34°39' E 135°24'0 0.1
2017-Jul-11 04:30N 34°39' E 135°24'5 9.3
2017-Jul-11 04:00N 34°38' E 135°19'510.9
2017-Jul-11 03:30N 34°37' E 135°12'511.0
2017-Jul-11 03:00N 34°36' E 135°06'6 9.3
2017-Jul-11 02:19N 34°37' E 134°58'412.0
2017-Jul-11 01:59N 34°37' E 135°03'4 9.1
2017-Jul-11 01:30N 34°35' E 135°08'612.0
2017-Jul-11 01:00N 34°40' E 135°12'0 0.6
2017-Jul-11 00:31N 34°41' E 135°12'0 0.0
2017-Jul-11 00:00N 34°41' E 135°12'0 0.0
2017-Jul-10 23:30N 34°41' E 135°12'0 0.0
2017-Jul-10 23:01N 34°41' E 135°12'  
Track history (hours):
 
Tides and Currents Weather Stations Pressure Air Temp Water Temp Dewpoint Dewpoint Depression Visibility Wind Speed Wind Dir Waves Ship Positions

Keiho Maru

Last reported at 2017-Jul-20 17:17 UTC. Time now 2017-Jul-21 22:50 UTC.
Position N 34°41' E 135°12'.

Length 38 m; draft 3.6 m.

Type: Tug. MMSI: 431401501.

Date/timePositionNaut miles runAvg speedWind from/ knotsBaromVisibWave heightAir tempDewpointWater temp
2017-Jul-20 17:17N 34°41' E 135°12'0 0.4
2017-Jul-20 17:00N 34°41' E 135°12'5 9.1
2017-Jul-20 16:30N 34°41' E 135°18'0 0.4
2017-Jul-20 16:00N 34°41' E 135°17'0 0.0
2017-Jul-20 15:30N 34°41' E 135°17'0 0.0
2017-Jul-20 15:00N 34°41' E 135°17'0 0.0
2017-Jul-20 14:00N 34°41' E 135°17'0 0.0
2017-Jul-20 13:30N 34°41' E 135°17'2 4.8
2017-Jul-20 13:00N 34°42' E 135°15'0 0.6
2017-Jul-20 12:30N 34°42' E 135°15'2 3.7
2017-Jul-20 12:00N 34°40' E 135°13'0 0.0
2017-Jul-20 11:30N 34°40' E 135°13'0 0.0
2017-Jul-20 11:00N 34°40' E 135°13'0 0.0
2017-Jul-20 10:30N 34°40' E 135°13'0 0.0
2017-Jul-20 10:00N 34°40' E 135°13'0 0.0
2017-Jul-20 09:30N 34°40' E 135°13'0 0.9
2017-Jul-20 09:00N 34°41' E 135°13'0 0.4
2017-Jul-20 08:30N 34°41' E 135°14'0 0.0
2017-Jul-20 08:00N 34°41' E 135°14'0 0.0
2017-Jul-20 07:30N 34°41' E 135°14'0 0.0
2017-Jul-20 07:00N 34°41' E 135°14'1 2.7
2017-Jul-20 06:30N 34°41' E 135°15'3 5.1
2017-Jul-20 06:00N 34°41' E 135°12'0 0.0
2017-Jul-20 05:30N 34°41' E 135°12'0 0.0
2017-Jul-20 05:00N 34°41' E 135°12'0 0.0
2017-Jul-20 04:30N 34°41' E 135°12'0 0.0
2017-Jul-20 04:00N 34°41' E 135°12'0 0.0
2017-Jul-20 03:30N 34°41' E 135°12'0 0.9
2017-Jul-20 03:00N 34°40' E 135°12'1 1.4
2017-Jul-20 02:30N 34°40' E 135°11'1 2.3
2017-Jul-20 02:00N 34°41' E 135°12'0 0.0
2017-Jul-20 01:30N 34°41' E 135°12'0 0.0
2017-Jul-20 01:00N 34°41' E 135°12'0 0.0
2017-Jul-20 00:30N 34°41' E 135°12'1 2.8
2017-Jul-20 00:00N 34°41' E 135°14'3 5.7
2017-Jul-19 23:30N 34°41' E 135°17'0 0.7
2017-Jul-19 23:00N 34°41' E 135°18'1 1.2
2017-Jul-19 22:30N 34°40' E 135°18'0 0.9
2017-Jul-19 22:00N 34°40' E 135°18'4 7.2
2017-Jul-19 21:30N 34°41' E 135°13'1 2.3
2017-Jul-19 21:00N 34°41' E 135°12'  
2017-Jul-17 09:26N 34°41' E 135°12'3 5.9
2017-Jul-17 09:00N 34°39' E 135°10'612.3
2017-Jul-17 08:30N 34°37' E 135°03'12 1.3
2017-Jul-16 22:49N 34°41' E 134°48'1 0.0
2017-Jul-15 22:33N 34°40' E 134°49'0 0.9
2017-Jul-15 22:30N 34°40' E 134°49'4 6.4
2017-Jul-15 21:49N 34°39' E 134°54'310.1
2017-Jul-15 21:30N 34°38' E 134°58'4 9.0
2017-Jul-15 21:00N 34°37' E 135°03'510.9
2017-Jul-15 20:30N 34°38' E 135°10'3 6.1
2017-Jul-15 20:00N 34°41' E 135°12'0 0.0
2017-Jul-15 06:55N 34°41' E 135°12'0 0.0
2017-Jul-15 06:30N 34°41' E 135°12'0 0.0
2017-Jul-15 06:00N 34°41' E 135°12'0 0.0
2017-Jul-15 05:30N 34°41' E 135°12'0 0.0
2017-Jul-15 05:00N 34°41' E 135°12'3 6.0
2017-Jul-15 04:30N 34°39' E 135°09'1 1.1
2017-Jul-15 04:00N 34°38' E 135°10'0 0.9
2017-Jul-15 03:29N 34°38' E 135°10'3 5.3
2017-Jul-15 03:00N 34°41' E 135°12'0 0.0
2017-Jul-15 02:30N 34°41' E 135°12'0 0.0
2017-Jul-15 02:00N 34°41' E 135°12'0 0.0
2017-Jul-15 01:30N 34°41' E 135°12'0 0.0
2017-Jul-15 01:00N 34°41' E 135°12'0 0.0
2017-Jul-15 00:30N 34°41' E 135°12'0 0.0
2017-Jul-15 00:00N 34°41' E 135°12'0 0.0
2017-Jul-14 23:30N 34°41' E 135°12'0 0.0
2017-Jul-14 23:00N 34°41' E 135°12'0 0.0
2017-Jul-14 10:42N 34°41' E 135°12'0 0.0
2017-Jul-14 10:31N 34°41' E 135°12'3 6.2
2017-Jul-14 10:00N 34°42' E 135°16'2 3.1
2017-Jul-14 09:30N 34°40' E 135°15'0 0.8
2017-Jul-14 09:00N 34°40' E 135°15'0 0.0
2017-Jul-14 08:30N 34°40' E 135°15'0 0.3
2017-Jul-14 08:00N 34°40' E 135°15'2 4.8
2017-Jul-14 07:30N 34°41' E 135°17'0 0.7
2017-Jul-14 07:00N 34°41' E 135°17'0 0.1
2017-Jul-14 06:30N 34°41' E 135°17'4 7.0
2017-Jul-14 06:00N 34°41' E 135°13'0 0.1
2017-Jul-14 05:30N 34°41' E 135°13'0 0.0
2017-Jul-14 05:00N 34°41' E 135°13'2 4.1
2017-Jul-14 04:30N 34°42' E 135°15'2 3.4
2017-Jul-14 04:00N 34°40' E 135°15'2 4.1
2017-Jul-14 03:30N 34°41' E 135°12'0 0.2
2017-Jul-14 03:00N 34°41' E 135°12'0 0.0
2017-Jul-14 02:30N 34°41' E 135°12'0 0.0
2017-Jul-14 02:01N 34°41' E 135°12'0 0.0
2017-Jul-14 01:31N 34°41' E 135°12'0 0.0
2017-Jul-14 01:01N 34°41' E 135°12'0 0.3
2017-Jul-14 00:30N 34°41' E 135°12'0 0.6
2017-Jul-14 00:01N 34°41' E 135°13'2 3.5
2017-Jul-13 23:30N 34°41' E 135°15'1 2.1
2017-Jul-13 23:00N 34°41' E 135°16'0 0.5
2017-Jul-13 22:30N 34°41' E 135°16'1 2.7
2017-Jul-13 22:01N 34°39' E 135°16'1 2.0
2017-Jul-13 21:30N 34°40' E 135°15'2 4.6
2017-Jul-13 21:01N 34°41' E 135°12'0 0.0
2017-Jul-13 06:02N 34°41' E 135°12'0 0.0
2017-Jul-13 06:00N 34°41' E 135°12'0 0.0
2017-Jul-13 05:30N 34°41' E 135°12'0 0.0
2017-Jul-13 05:00N 34°41' E 135°12'0 0.0
2017-Jul-13 04:30N 34°41' E 135°12'0 0.0
2017-Jul-13 04:01N 34°41' E 135°12'0 0.0
2017-Jul-13 03:31N 34°41' E 135°12'4 7.7
2017-Jul-13 03:00N 34°38' E 135°16'713.4
2017-Jul-13 02:30N 34°34' E 135°22'2 3.4
2017-Jul-13 01:57N 34°33' E 135°24'0 0.1
2017-Jul-13 01:30N 34°33' E 135°24'0 1.0
2017-Jul-13 01:00N 34°33' E 135°24'3 4.6
2017-Jul-13 00:24N 34°33' E 135°20'3 4.8
2017-Jul-12 23:47N 34°31' E 135°23'1 3.4
2017-Jul-12 23:30N 34°31' E 135°24'0 0.0
2017-Jul-12 23:00N 34°31' E 135°24'0 0.0
2017-Jul-12 22:30N 34°31' E 135°24'0 0.0
2017-Jul-12 22:00N 34°31' E 135°24'0 0.0
2017-Jul-12 21:30N 34°31' E 135°24'1 1.6
2017-Jul-12 20:52N 34°32' E 135°24'3 8.3
2017-Jul-12 20:30N 34°34' E 135°21'612.1
2017-Jul-12 20:00N 34°37' E 135°16'4 8.5
2017-Jul-12 19:30N 34°41' E 135°12'0 0.0
2017-Jul-12 19:00N 34°41' E 135°12'0 0.0
2017-Jul-12 18:30N 34°41' E 135°12'0 0.0
2017-Jul-12 05:46N 34°41' E 135°12'0 1.7
2017-Jul-12 05:30N 34°40' E 135°12'5 9.1
2017-Jul-12 05:00N 34°38' E 135°17'5 9.4
2017-Jul-12 04:26N 34°35' E 135°22'3 2.6
2017-Jul-12 03:28N 34°34' E 135°25'1 1.3
2017-Jul-12 02:58N 34°33' E 135°24'3 6.6
2017-Jul-12 02:30N 34°33' E 135°21'1 2.5
2017-Jul-12 01:57N 34°34' E 135°19'4 9.7
2017-Jul-12 01:30N 34°38' E 135°16'2 3.1
2017-Jul-12 01:00N 34°39' E 135°15'0 0.0
2017-Jul-12 00:30N 34°39' E 135°15'0 0.0
2017-Jul-12 00:00N 34°39' E 135°15'0 0.0
2017-Jul-11 23:30N 34°39' E 135°15'0 0.0
2017-Jul-11 23:00N 34°39' E 135°15'1 1.9
2017-Jul-11 22:30N 34°40' E 135°14'1 2.7
2017-Jul-11 22:00N 34°39' E 135°15'2 3.8
2017-Jul-11 21:30N 34°39' E 135°13'2 3.6
2017-Jul-11 21:00N 34°41' E 135°12'0 0.0
2017-Jul-11 09:55N 34°41' E 135°12'2 5.7
2017-Jul-11 09:30N 34°41' E 135°15'612.5
2017-Jul-11 09:00N 34°39' E 135°22'1 2.8
2017-Jul-11 08:30N 34°39' E 135°24'1 1.9
2017-Jul-11 07:59N 34°39' E 135°25'0 0.2
2017-Jul-11 07:30N 34°40' E 135°24'0 0.0
2017-Jul-11 07:00N 34°40' E 135°24'0 0.0
2017-Jul-11 06:30N 34°40' E 135°24'1 1.9
2017-Jul-11 06:00N 34°39' E 135°24'0 0.7
2017-Jul-11 05:30N 34°39' E 135°24'0 0.2
2017-Jul-11 05:00N 34°39' E 135°24'0 0.1
2017-Jul-11 04:30N 34°39' E 135°24'5 9.3
2017-Jul-11 04:00N 34°38' E 135°19'510.9
2017-Jul-11 03:30N 34°37' E 135°12'511.0
2017-Jul-11 03:00N 34°36' E 135°06'6 9.3
2017-Jul-11 02:19N 34°37' E 134°58'412.0
2017-Jul-11 01:59N 34°37' E 135°03'4 9.1
2017-Jul-11 01:30N 34°35' E 135°08'612.0
2017-Jul-11 01:00N 34°40' E 135°12'0 0.6
2017-Jul-11 00:31N 34°41' E 135°12'0 0.0
2017-Jul-11 00:00N 34°41' E 135°12'0 0.0
2017-Jul-10 23:30N 34°41' E 135°12'0 0.0
2017-Jul-10 23:01N 34°41' E 135°12'  

Dump ship's entire track history